createdAt,value
2022-12-09T00:02:08.396Z,4.64
2022-12-09T00:07:13.972Z,4.65
2022-12-09T00:12:21.451Z,4.65
2022-12-09T00:17:26.766Z,4.67
2022-12-09T00:22:37.013Z,4.67
2022-12-09T00:27:44.381Z,4.65
2022-12-09T00:32:48.360Z,4.66
2022-12-09T00:37:52.515Z,4.69
2022-12-09T00:42:54.163Z,4.70
2022-12-09T00:47:58.016Z,4.74
2022-12-09T00:53:07.283Z,4.76
2022-12-09T00:58:11.554Z,4.79
2022-12-09T01:03:20.222Z,4.81
2022-12-09T01:08:22.340Z,4.83
2022-12-09T01:13:24.010Z,4.85
2022-12-09T01:18:32.169Z,4.87
2022-12-09T01:23:34.242Z,4.88
2022-12-09T01:28:38.855Z,4.88
2022-12-09T01:33:53.495Z,4.86
2022-12-09T01:38:58.250Z,4.85
2022-12-09T01:44:34.608Z,4.86
2022-12-09T01:49:48.514Z,4.87
2022-12-09T01:54:56.241Z,4.87
2022-12-09T02:00:00.284Z,4.89
2022-12-09T02:05:06.862Z,4.89
2022-12-09T02:10:18.073Z,4.90
2022-12-09T02:15:51.721Z,4.91
2022-12-09T02:21:19.896Z,4.93
2022-12-09T02:27:01.131Z,4.93
2022-12-09T02:32:34.292Z,4.92
2022-12-09T02:37:57.116Z,4.90
2022-12-09T02:43:06.558Z,4.92
2022-12-09T02:48:16.503Z,4.93
2022-12-09T02:53:27.180Z,4.92
2022-12-09T02:58:34.715Z,4.92
2022-12-09T03:03:39.317Z,4.91
2022-12-09T03:09:01.025Z,4.90
2022-12-09T03:14:11.911Z,4.89
2022-12-09T03:19:41.011Z,4.88
2022-12-09T03:24:53.094Z,4.87
2022-12-09T03:30:01.502Z,4.87
2022-12-09T03:35:23.214Z,4.86
2022-12-09T03:40:30.691Z,4.85
2022-12-09T03:45:37.183Z,4.84
2022-12-09T03:50:49.280Z,4.82
2022-12-09T03:56:27.155Z,4.81
2022-12-09T04:01:34.516Z,4.80
2022-12-09T04:06:37.172Z,4.78
2022-12-09T04:11:42.238Z,4.77
2022-12-09T04:16:54.128Z,4.77
2022-12-09T04:21:58.289Z,4.76
2022-12-09T04:27:12.608Z,4.73
2022-12-09T04:32:21.909Z,4.74
2022-12-09T04:37:33.689Z,4.73
2022-12-09T04:42:39.027Z,4.72
2022-12-09T04:47:46.169Z,4.72
2022-12-09T04:52:50.886Z,4.72
2022-12-09T04:58:00.644Z,4.74
2022-12-09T05:03:08.244Z,4.73
2022-12-09T05:08:22.912Z,4.73
2022-12-09T05:13:35.905Z,4.73
2022-12-09T05:18:38.307Z,4.72
2022-12-09T05:23:46.597Z,4.70
2022-12-09T05:28:52.347Z,4.68
2022-12-09T05:33:57.115Z,4.67
2022-12-09T05:39:06.729Z,4.63
2022-12-09T05:44:16.462Z,4.63
2022-12-09T05:49:18.674Z,4.61
2022-12-09T05:54:27.329Z,4.60
2022-12-09T05:59:32.812Z,4.55
2022-12-09T06:04:39.270Z,4.52
2022-12-09T06:09:51.153Z,4.51
2022-12-09T06:14:53.253Z,4.52
2022-12-09T06:19:54.893Z,4.54
2022-12-09T06:25:01.724Z,4.55
2022-12-09T06:30:18.655Z,4.55
2022-12-09T06:35:23.768Z,4.59
2022-12-09T06:40:30.116Z,4.59
2022-12-09T06:45:36.074Z,4.61
2022-12-09T06:50:41.066Z,4.60
2022-12-09T06:55:48.787Z,4.60
2022-12-09T07:01:17.345Z,4.60
2022-12-09T07:06:28.760Z,4.61
2022-12-09T07:11:31.065Z,4.60
2022-12-09T07:21:53.966Z,4.60
2022-12-09T07:27:04.707Z,4.60
2022-12-09T07:32:24.375Z,4.60
2022-12-09T07:37:26.374Z,4.60
2022-12-09T07:42:31.875Z,4.61
2022-12-09T07:47:38.475Z,4.62
2022-12-09T07:52:55.536Z,4.65
2022-12-09T07:58:00.252Z,4.66
2022-12-09T08:03:06.566Z,4.68
2022-12-09T08:08:10.964Z,4.71
2022-12-09T08:13:18.840Z,4.73
2022-12-09T08:18:30.344Z,4.77
2022-12-09T08:23:40.422Z,4.78
2022-12-09T08:28:52.367Z,4.81
2022-12-09T08:34:02.327Z,4.82
2022-12-09T08:39:06.052Z,4.82
2022-12-09T08:44:16.542Z,4.77
2022-12-09T08:49:23.345Z,4.75
2022-12-09T08:54:27.487Z,4.71
2022-12-09T08:59:29.517Z,4.73
2022-12-09T09:04:31.890Z,4.78
2022-12-09T09:09:38.824Z,4.77
2022-12-09T09:14:52.883Z,4.82
2022-12-09T09:19:56.805Z,4.91
2022-12-09T09:25:06.852Z,4.98
2022-12-09T09:30:09.830Z,5.06
2022-12-09T09:35:18.820Z,5.10
2022-12-09T09:40:23.363Z,5.13
2022-12-09T09:45:29.551Z,5.16
2022-12-09T09:51:07.927Z,5.16
2022-12-09T09:56:36.838Z,5.16
2022-12-09T10:01:55.056Z,5.17
2022-12-09T10:07:07.919Z,5.19
2022-12-09T10:12:27.033Z,5.03
2022-12-09T10:17:55.428Z,4.87
2022-12-09T10:23:01.945Z,4.89
2022-12-09T10:28:29.271Z,4.93
2022-12-09T10:33:42.928Z,4.97
2022-12-09T10:38:48.173Z,5.03
2022-12-09T10:43:52.487Z,5.09
2022-12-09T10:49:01.555Z,5.16
2022-12-09T10:54:52.976Z,5.20
2022-12-09T10:59:59.516Z,5.22
2022-12-09T11:05:30.190Z,5.24
2022-12-09T11:10:39.147Z,5.27
2022-12-09T11:15:52.824Z,5.28
2022-12-09T11:21:08.140Z,5.30
2022-12-09T11:26:33.802Z,5.32
2022-12-09T11:31:44.474Z,5.33
2022-12-09T11:36:52.252Z,5.33
2022-12-09T11:42:19.258Z,5.37
2022-12-09T11:47:44.865Z,5.36
2022-12-09T11:53:31.542Z,5.38
2022-12-09T11:58:52.394Z,5.40
2022-12-09T12:04:02.868Z,5.45
2022-12-09T12:09:18.129Z,5.47
2022-12-09T12:14:29.522Z,5.51
2022-12-09T12:19:41.320Z,5.53
2022-12-09T12:25:18.307Z,5.53
2022-12-09T12:30:41.088Z,5.55
2022-12-09T12:35:57.312Z,5.53
2022-12-09T12:41:10.419Z,5.52
2022-12-09T12:46:43.195Z,5.54
2022-12-09T12:52:47.547Z,5.56
2022-12-09T12:58:06.558Z,5.57
2022-12-09T13:03:15.370Z,5.61
2022-12-09T13:08:25.730Z,5.48
2022-12-09T13:13:55.085Z,5.41
2022-12-09T13:19:09.218Z,5.33
2022-12-09T13:25:08.261Z,5.27
2022-12-09T13:30:23.094Z,5.29
2022-12-09T13:36:06.303Z,5.34
2022-12-09T13:41:49.184Z,5.36
2022-12-09T13:46:54.385Z,5.41
2022-12-09T13:51:59.892Z,5.46
2022-12-09T13:57:29.800Z,5.34
2022-12-09T14:03:01.671Z,5.15
2022-12-09T14:08:22.429Z,5.14
2022-12-09T14:13:35.338Z,5.15
2022-12-09T14:18:45.947Z,5.10
2022-12-09T14:24:11.362Z,4.92
2022-12-09T14:29:54.040Z,4.89
2022-12-09T14:35:12.057Z,4.89
2022-12-09T14:40:30.085Z,4.81
2022-12-09T14:46:01.126Z,4.69
2022-12-09T14:51:16.277Z,4.68
2022-12-09T14:56:22.706Z,4.70
2022-12-09T15:01:26.583Z,4.73
2022-12-09T15:06:35.201Z,4.74
2022-12-09T15:11:40.932Z,4.69
2022-12-09T15:16:51.226Z,4.55
2022-12-09T15:21:53.138Z,4.47
2022-12-09T15:27:07.594Z,4.45
2022-12-09T15:32:27.666Z,4.42
2022-12-09T15:37:35.657Z,4.38
2022-12-09T15:42:44.214Z,4.31
2022-12-09T15:48:01.268Z,4.28
2022-12-09T15:53:27.307Z,4.21
2022-12-09T15:58:40.740Z,4.15
2022-12-09T16:03:52.653Z,4.07
2022-12-09T16:08:57.918Z,3.99
2022-12-09T16:14:02.102Z,3.95
2022-12-09T16:19:05.955Z,3.89
2022-12-09T16:24:14.153Z,3.93
2022-12-09T16:29:29.303Z,3.93
2022-12-09T16:34:33.968Z,3.95
2022-12-09T16:39:40.680Z,4.01
2022-12-09T16:44:44.749Z,4.08
2022-12-09T16:49:58.542Z,4.11
2022-12-09T16:55:00.085Z,4.08
2022-12-09T17:00:03.598Z,4.09
2022-12-09T17:05:27.271Z,4.12
2022-12-09T17:10:31.309Z,4.14
2022-12-09T17:15:32.865Z,4.10
2022-12-09T17:20:38.388Z,4.10
2022-12-09T17:25:58.065Z,4.10
2022-12-09T17:31:01.216Z,4.11
2022-12-09T17:36:06.363Z,4.13
2022-12-09T17:41:13.095Z,4.13
2022-12-09T17:46:22.721Z,4.12
2022-12-09T17:51:35.372Z,4.18
2022-12-09T17:56:44.208Z,4.18
2022-12-09T18:01:51.039Z,4.18
2022-12-09T18:06:54.565Z,4.18
2022-12-09T18:12:06.491Z,4.17
2022-12-09T18:17:10.440Z,4.19
2022-12-09T18:22:15.005Z,4.16
2022-12-09T18:27:19.255Z,4.16
2022-12-09T18:32:20.757Z,4.16
2022-12-09T18:37:29.035Z,4.12
2022-12-09T18:42:33.596Z,4.09
2022-12-09T18:47:35.161Z,4.11
2022-12-09T18:52:40.639Z,4.13
2022-12-09T18:57:44.823Z,4.16
2022-12-09T19:02:47.721Z,4.16
2022-12-09T19:08:04.078Z,4.16
2022-12-09T19:13:10.064Z,4.22
2022-12-09T19:18:14.342Z,4.30
2022-12-09T19:23:33.813Z,4.30
2022-12-09T19:28:36.619Z,4.29
2022-12-09T19:33:53.046Z,4.28
2022-12-09T19:38:57.123Z,4.28
2022-12-09T19:44:00.094Z,4.22
2022-12-09T19:49:16.241Z,4.17
2022-12-09T19:54:26.713Z,4.16
2022-12-09T19:59:30.060Z,4.17
2022-12-09T20:04:51.130Z,4.17
2022-12-09T20:10:11.082Z,4.15
2022-12-09T20:15:17.498Z,4.17
2022-12-09T20:20:19.289Z,4.18
2022-12-09T20:25:24.980Z,4.12
2022-12-09T20:30:27.728Z,4.05
2022-12-09T20:35:31.841Z,4.02
2022-12-09T20:40:40.779Z,3.98
2022-12-09T20:45:49.257Z,3.96
2022-12-09T20:50:59.044Z,3.98
2022-12-09T20:56:07.635Z,3.95
2022-12-09T21:01:19.472Z,3.95
2022-12-09T21:06:37.577Z,3.94
2022-12-09T21:11:42.782Z,3.87
2022-12-09T21:17:02.188Z,3.88
2022-12-09T21:22:06.281Z,3.94
2022-12-09T21:27:12.016Z,4.04
2022-12-09T21:32:13.604Z,4.14
2022-12-09T21:37:15.280Z,4.21
2022-12-09T21:42:16.959Z,4.23
2022-12-09T21:47:18.516Z,4.24
2022-12-09T21:52:26.164Z,4.22
2022-12-09T21:57:31.738Z,4.27
2022-12-09T22:02:44.489Z,4.33
2022-12-09T22:07:54.340Z,4.41
2022-12-09T22:12:55.978Z,4.45
2022-12-09T22:18:10.882Z,4.50
2022-12-09T22:23:17.202Z,4.49
2022-12-09T22:28:23.421Z,4.48
2022-12-09T22:33:30.112Z,4.46
2022-12-09T22:38:37.658Z,4.42
2022-12-09T22:43:40.438Z,4.39
2022-12-09T22:48:45.541Z,4.36
2022-12-09T22:53:53.274Z,4.30
2022-12-09T22:59:09.503Z,4.27
2022-12-09T23:04:17.942Z,4.22
2022-12-09T23:09:25.476Z,4.14
2022-12-09T23:14:29.093Z,4.06
2022-12-09T23:19:33.200Z,3.99
2022-12-09T23:24:37.589Z,3.90
2022-12-09T23:29:39.180Z,3.92
2022-12-09T23:34:51.579Z,3.97
2022-12-09T23:40:00.308Z,3.96
2022-12-09T23:45:01.886Z,3.85
2022-12-09T23:50:08.574Z,3.78
2022-12-09T23:55:16.818Z,3.80
